Time;durP1;ratioP1;P1;durP2;ratioP2;P2;SDS_P1;SDS_P2;PMS_P1;PMS_P2;Temp;Humidity;BMP_temperature;BMP_pressure;BME280_temperature;BME280_humidity;BME280_pressure;Samples;Min_cycle;Max_cycle;Signal;HPM_P1;HPM_P2
2022/05/19 00:08:32;;;;;;;0.90;0.70;;;;;;;;;;21015065;28;20766;-70
2022/05/19 00:18:35;;;;;;;1.05;0.70;;;24.90;92.90;;;;;;21075133;28;20207;-68
2022/05/19 00:28:37;;;;;;;0.73;0.52;;;;;;;;;;21040692;22;20224;-70
2022/05/19 00:38:39;;;;;;;0.57;0.50;;;24.70;97.50;;;;;;20990236;28;20210;-70
2022/05/19 00:48:50;;;;;;;1.58;0.65;;;;;;;;;;20990496;28;20650;-70
2022/05/19 00:59:21;;;;;;;1.30;0.60;;;24.40;99.90;;;;;;20981753;28;20218;-70
2022/05/19 01:09:23;;;;;;;0.70;0.50;;;;;;;;;;20987220;28;20235;-70
2022/05/19 01:19:25;;;;;;;0.75;0.50;;;;;;;;;;20987104;28;20290;-70
2022/05/19 01:29:28;;;;;;;1.40;0.60;;;;;;;;;;20985673;28;20219;-70
2022/05/19 01:39:31;;;;;;;0.77;0.60;;;23.90;99.90;;;;;;20986601;28;20537;-70
2022/05/19 01:49:38;;;;;;;0.85;0.50;;;23.70;90.60;;;;;;20984892;28;20208;-70
2022/05/19 01:59:45;;;;;;;1.38;0.60;;;23.60;99.90;;;;;;20985416;28;20233;-70
2022/05/19 02:09:53;;;;;;;1.27;0.70;;;;;;;;;;21020136;28;20213;-70
2022/05/19 02:19:58;;;;;;;1.30;0.60;;;23.40;99.90;;;;;;21067610;28;20276;-70
2022/05/19 02:30:01;;;;;;;2.35;0.60;;;23.40;99.90;;;;;;21065244;28;20681;-70
2022/05/19 02:40:04;;;;;;;0.80;0.70;;;;;;;;;;21042343;28;20212;-70
2022/05/19 02:50:06;;;;;;;2.85;0.80;;;;;;;;;;20983009;28;20718;-70
2022/05/19 03:00:12;;;;;;;1.00;0.47;;;;;;;;;;20982805;28;20209;-70
2022/05/19 03:10:14;;;;;;;1.33;0.70;;;23.10;95.60;;;;;;20982427;28;20233;-70
2022/05/19 03:20:16;;;;;;;4.50;1.20;;;23.00;99.90;;;;;;20987992;28;20212;-72
2022/05/19 03:30:19;;;;;;;1.83;0.70;;;;;;;;;;20995545;28;20214;-70
2022/05/19 03:40:20;;;;;;;4.60;0.70;;;;;;;;;;21019944;28;20322;-70
2022/05/19 03:50:22;;;;;;;1.05;0.70;;;;;;;;;;21044392;28;20214;-70
2022/05/19 04:00:24;;;;;;;1.05;0.93;;;;;;;;;;21011340;28;20251;-69
2022/05/19 04:10:26;;;;;;;4.05;0.90;;;;;;;;;;21007952;28;20263;-70
2022/05/19 04:20:31;;;;;;;1.73;0.98;;;;;;;;;;21058376;28;20286;-71
2022/05/19 04:30:33;;;;;;;5.53;1.17;;;;;;;;;;21072378;28;20230;-71
2022/05/19 04:40:37;;;;;;;2.63;1.05;;;;;;;;;;21075080;28;20591;-71
2022/05/19 04:50:39;;;;;;;1.73;0.75;;;;;;;;;;21074418;28;20230;-71
2022/05/19 05:00:41;;;;;;;3.00;1.00;;;23.30;99.90;;;;;;21073510;28;20268;-71
2022/05/19 05:10:43;;;;;;;1.40;0.70;;;;;;;;;;21071181;28;20623;-71
2022/05/19 05:20:45;;;;;;;2.88;0.80;;;23.60;99.90;;;;;;21070136;28;20209;-71
2022/05/19 05:30:49;;;;;;;3.42;0.98;;;;;;;;;;21067720;28;20279;-72
2022/05/19 05:40:55;;;;;;;1.63;0.90;;;;;;;;;;21066735;28;20215;-71
2022/05/19 05:50:57;;;;;;;1.50;0.85;;;;;;;;;;21067179;28;20241;-70
2022/05/19 06:00:58;;;;;;;2.13;0.80;;;;;;;;;;21066439;28;20195;-71
2022/05/19 06:11:01;;;;;;;1.15;0.70;;;;;;;;;;21067374;28;20444;-71
2022/05/19 06:21:04;;;;;;;1.27;0.70;;;;;;;;;;21066058;28;20224;-70
2022/05/19 06:31:06;;;;;;;0.60;0.45;;;;;;;;;;21025884;22;20232;-72
2022/05/19 06:51:30;;;;;;;2.67;0.75;;;;;;;;;;20996133;28;20236;-70
2022/05/19 07:01:31;;;;;;;1.45;0.90;;;23.70;93.50;;;;;;21011931;28;20208;-69
2022/05/19 07:11:34;;;;;;;0.60;0.50;;;;;;;;;;21006407;28;20218;-70
2022/05/19 07:21:36;;;;;;;3.38;0.70;;;;;;;;;;21011093;28;20202;-71
2022/05/19 07:31:38;;;;;;;0.88;0.60;;;;;;;;;;21010894;28;20268;-72
2022/05/19 07:41:40;;;;;;;0.80;0.43;;;24.10;97.40;;;;;;21030304;28;20258;-72
2022/05/19 07:51:43;;;;;;;1.00;0.52;;;24.50;98.30;;;;;;20971475;28;20206;-72
2022/05/19 08:01:46;;;;;;;0.80;0.60;;;;;;;;;;20919043;28;20207;-71
2022/05/19 08:11:48;;;;;;;1.00;0.70;;;;;;;;;;20920999;28;20223;-71
2022/05/19 08:21:51;;;;;;;0.98;0.60;;;;;;;;;;20922506;28;20769;-72
2022/05/19 08:31:53;;;;;;;1.42;0.60;;;25.50;92.80;;;;;;20922967;28;20223;-70
2022/05/19 08:42:01;;;;;;;1.05;0.60;;;25.60;96.20;;;;;;20919910;28;20196;-71
2022/05/19 08:52:11;;;;;;;0.80;0.60;;;;;;;;;;20950587;28;20217;-71
2022/05/19 09:02:19;;;;;;;1.02;0.70;;;26.20;95.80;;;;;;21002178;28;20744;-71
2022/05/19 09:12:23;;;;;;;0.63;0.52;;;;;;;;;;21002553;28;20260;-71
2022/05/19 09:22:29;;;;;;;2.50;0.60;;;26.50;97.00;;;;;;21000181;28;20207;-70
2022/05/19 09:32:39;;;;;;;1.35;0.80;;;;;;;;;;21027369;28;20220;-72
2022/05/19 09:42:53;;;;;;;0.90;0.70;;;;;;;;;;20999871;28;20207;-71
2022/05/19 09:53:03;;;;;;;2.30;0.70;;;;;;;;;;20924852;28;20742;-71
2022/05/19 10:03:10;;;;;;;1.83;0.90;;;27.80;94.80;;;;;;20918414;28;20209;-71
2022/05/19 10:13:14;;;;;;;1.50;0.90;;;27.90;96.10;;;;;;20913367;28;20271;-71
2022/05/19 10:23:28;;;;;;;1.23;0.80;;;28.20;96.00;;;;;;20914163;28;20555;-71
2022/05/19 10:33:30;;;;;;;1.58;0.73;;;;;;;;;;20923260;28;20263;-71
2022/05/19 10:43:53;;;;;;;1.63;1.10;;;;;;;;;;20932176;28;20269;-71
2022/05/19 10:54:14;;;;;;;1.00;0.60;;;29.00;89.70;;;;;;20976857;28;20625;-70
2022/05/19 11:04:28;;;;;;;1.38;0.80;;;;;;;;;;20952562;28;20556;-73
2022/05/19 11:14:32;;;;;;;3.38;0.88;;;;;;;;;;20999845;28;20224;-74
2022/05/19 11:26:23;;;;;;;2.30;0.75;;;;;;;;;;21012992;28;20219;-76
2022/05/19 11:35:12;;;;;;;2.63;0.73;;;29.50;93.80;;;;;;21009943;28;20236;-75
2022/05/19 11:45:39;;;;;;;2.53;1.00;;;;;;;;;;20972668;28;20199;-75
2022/05/19 11:55:45;;;;;;;1.25;0.70;;;30.20;90.00;;;;;;20999482;28;20212;-73
2022/05/19 12:05:58;;;;;;;1.45;0.93;;;;;;;;;;20999725;28;20254;-73
2022/05/19 12:16:08;;;;;;;1.73;0.75;;;30.50;90.00;;;;;;21002128;28;20216;-72
2022/05/19 12:26:17;;;;;;;1.40;0.70;;;;;;;;;;21012329;22;20228;-71
2022/05/19 12:36:30;;;;;;;4.93;1.20;;;30.90;87.20;;;;;;20983439;28;20293;-72
2022/05/19 12:46:38;;;;;;;1.88;1.00;;;;;;;;;;20990441;28;20338;-71
2022/05/19 12:56:46;;;;;;;1.27;0.70;;;;;;;;;;20977151;28;20251;-70
2022/05/19 13:06:56;;;;;;;2.25;0.98;;;;;;;;;;20990321;28;20201;-71
2022/05/19 13:16:58;;;;;;;2.00;0.88;;;;;;;;;;20989142;28;20212;-71
2022/05/19 13:37:33;;;;;;;1.90;1.00;;;31.40;88.00;;;;;;20989617;28;20213;-72
2022/05/19 13:47:35;;;;;;;1.65;0.93;;;;;;;;;;20906861;28;20232;-72
2022/05/19 13:57:37;;;;;;;1.63;0.80;;;;;;;;;;20939686;28;20694;-72
2022/05/19 14:07:40;;;;;;;1.20;0.70;;;31.60;88.10;;;;;;20990343;28;20209;-72
2022/05/19 14:17:48;;;;;;;2.53;0.90;;;31.80;87.70;;;;;;20992438;28;20279;-73
2022/05/19 14:27:59;;;;;;;2.40;0.98;;;;;;;;;;20987196;28;20217;-72
2022/05/19 14:38:02;;;;;;;2.97;1.15;;;;;;;;;;20986640;28;20217;-72
2022/05/19 14:48:08;;;;;;;2.20;1.13;;;;;;;;;;20988388;28;20205;-73
2022/05/19 14:58:20;;;;;;;1.08;0.63;;;32.30;86.00;;;;;;20959210;28;20798;-73
2022/05/19 15:08:25;;;;;;;2.75;0.85;;;;;;;;;;20971235;28;20205;-73
2022/05/19 15:18:27;;;;;;;2.45;0.90;;;;;;;;;;20983251;28;20607;-73
2022/05/19 15:28:30;;;;;;;1.10;0.70;;;;;;;;;;20987529;28;20221;-73
2022/05/19 15:38:31;;;;;;;2.15;0.65;;;31.80;76.70;;;;;;20985565;28;20209;-71
2022/05/19 15:48:33;;;;;;;1.30;0.70;;;;;;;;;;20985479;28;20749;-73
2022/05/19 15:58:37;;;;;;;2.55;0.90;;;;;;;;;;20982697;28;20777;-73
2022/05/19 16:08:39;;;;;;;2.20;0.90;;;30.90;79.70;;;;;;20983128;28;20205;-73
2022/05/19 16:18:41;;;;;;;2.65;0.70;;;;;;;;;;20985081;28;20291;-72
2022/05/19 16:28:43;;;;;;;3.40;0.90;;;;;;;;;;20968645;28;20305;-72
2022/05/19 16:38:45;;;;;;;1.23;0.80;;;;;;;;;;21027386;28;20209;-73
2022/05/19 16:48:50;;;;;;;1.40;0.80;;;;;;;;;;21017949;28;20737;-72
2022/05/19 16:58:51;;;;;;;3.53;0.98;;;;;;;;;;21053815;28;20261;-73
2022/05/19 17:08:53;;;;;;;1.38;0.80;;;;;;;;;;21034123;28;20216;-76
2022/05/19 17:18:56;;;;;;;1.20;0.80;;;;;;;;;;20974464;28;20287;-72
2022/05/19 17:28:58;;;;;;;1.25;0.90;;;;;;;;;;20963162;28;20689;-72
2022/05/19 17:39:01;;;;;;;1.98;1.10;;;;;;;;;;20957348;28;20209;-72
2022/05/19 17:49:04;;;;;;;1.23;0.70;;;;;;;;;;20968214;28;20243;-73
2022/05/19 17:59:06;;;;;;;0.77;0.47;;;;;;;;;;20959892;28;20266;-73
2022/05/19 18:09:08;;;;;;;0.60;0.40;;;;;;;;;;20960870;28;20266;-73
2022/05/19 18:19:10;;;;;;;0.77;0.50;;;;;;;;;;20962820;28;20209;-74
2022/05/19 18:29:12;;;;;;;2.10;0.40;;;;;;;;;;20973077;22;20229;-71
2022/05/19 18:39:14;;;;;;;3.03;1.65;;;;;;;;;;20940140;28;20220;-70
2022/05/19 18:49:16;;;;;;;0.68;0.40;;;;;;;;;;20895440;28;20216;-70
2022/05/19 18:59:18;;;;;;;1.02;0.52;;;;;;;;;;20890220;28;20257;-70
2022/05/19 19:09:20;;;;;;;2.35;0.43;;;;;;;;;;20887318;28;20245;-69
2022/05/19 19:19:22;;;;;;;0.60;0.30;;;;;;;;;;20892444;28;20511;-70
2022/05/19 19:29:26;;;;;;;2.25;0.60;;;;;;;;;;20895928;28;20237;-70
2022/05/19 19:39:28;;;;;;;3.13;0.60;;;;;;;;;;20883234;28;20240;-69
2022/05/19 19:49:30;;;;;;;2.30;0.60;;;;;;;;;;20919718;28;20228;-69
2022/05/19 19:59:33;;;;;;;0.73;0.50;;;;;;;;;;20975637;28;20217;-69
2022/05/19 20:09:36;;;;;;;1.08;0.70;;;;;;;;;;20975769;28;20266;-69
2022/05/19 20:19:38;;;;;;;0.55;0.45;;;;;;;;;;20975366;28;20205;-69
2022/05/19 20:29:40;;;;;;;1.00;0.68;;;27.20;99.90;;;;;;20973299;28;20216;-68
2022/05/19 20:39:42;;;;;;;0.70;0.60;;;;;;;;;;20973461;28;20614;-69
2022/05/19 20:49:44;;;;;;;1.27;0.70;;;;;;;;;;20968651;28;20278;-69
2022/05/19 20:59:46;;;;;;;3.78;1.30;;;;;;;;;;20941783;28;20204;-69
2022/05/19 21:09:49;;;;;;;1.10;0.70;;;;;;;;;;20887712;28;20589;-69
2022/05/19 21:19:51;;;;;;;1.60;0.80;;;;;;;;;;20888454;28;20696;-69
2022/05/19 21:29:54;;;;;;;1.20;0.88;;;;;;;;;;20888615;28;20220;-69
2022/05/19 21:39:56;;;;;;;2.65;0.80;;;;;;;;;;20891285;28;20564;-69
2022/05/19 21:49:58;;;;;;;2.33;0.90;;;;;;;;;;20899450;28;20266;-70
2022/05/19 21:59:59;;;;;;;1.40;0.80;;;;;;;;;;20903069;28;20209;-69
2022/05/19 22:10:02;;;;;;;1.95;0.93;;;;;;;;;;20901944;28;20278;-70
2022/05/19 22:20:05;;;;;;;3.88;0.98;;;25.60;99.90;;;;;;20900203;28;20205;-70
2022/05/19 22:30:10;;;;;;;4.55;1.08;;;25.60;99.90;;;;;;20811262;28;20688;-69
2022/05/19 22:40:12;;;;;;;1.35;0.90;;;25.60;99.90;;;;;;20819243;28;20209;-69
2022/05/19 22:50:15;;;;;;;1.52;0.93;;;;;;;;;;20816843;28;20209;-70
2022/05/19 23:00:19;;;;;;;2.08;0.88;;;25.60;99.90;;;;;;20817854;28;20726;-70
2022/05/19 23:10:22;;;;;;;1.30;0.88;;;25.40;99.90;;;;;;20817504;28;20776;-69
2022/05/19 23:20:26;;;;;;;1.60;1.10;;;;;;;;;;20815877;28;20206;-69
2022/05/19 23:30:27;;;;;;;1.52;0.85;;;;;;;;;;20817254;28;20350;-69
2022/05/19 23:40:32;;;;;;;1.38;1.00;;;;;;;;;;20828360;28;20766;-70
2022/05/19 23:50:35;;;;;;;2.08;1.00;;;;;;;;;;20919645;28;20273;-69
